Time;durP1;ratioP1;P1;durP2;ratioP2;P2;SDS_P1;SDS_P2;PMS_P1;PMS_P2;Temp;Humidity;BMP_temperature;BMP_pressure;BME280_temperature;BME280_humidity;BME280_pressure;Samples;Min_cycle;Max_cycle;Signal;HPM_P1;HPM_P2
2023/07/18 00:02:08;;;;;;;4.22;1.50;;;;;;;23.81;46.03;102075.72;4969826;28;20121;-68
2023/07/18 00:04:34;;;;;;;5.85;1.50;;;;;;;23.81;45.94;102078.38;4987464;28;20110;-68
2023/07/18 00:06:59;;;;;;;6.78;1.60;;;;;;;23.83;45.82;102079.06;4987819;28;20026;-67
2023/07/18 00:09:25;;;;;;;3.45;1.33;;;;;;;23.81;45.89;102078.38;4987439;28;20054;-68
2023/07/18 00:11:50;;;;;;;3.63;1.40;;;;;;;23.80;45.90;102080.19;4986849;28;20057;-68
2023/07/18 00:14:16;;;;;;;5.65;1.73;;;;;;;23.81;45.60;102084.53;4987362;28;20041;-68
2023/07/18 00:16:44;;;;;;;3.75;1.30;;;;;;;23.80;45.70;102082.00;4986639;28;20057;-67
2023/07/18 00:19:12;;;;;;;4.13;1.30;;;;;;;23.78;45.79;102079.47;4984059;28;20455;-68
2023/07/18 00:21:40;;;;;;;4.68;1.70;;;;;;;23.79;45.61;102081.16;4986404;28;20061;-67
2023/07/18 00:24:06;;;;;;;5.28;1.58;;;;;;;23.78;45.48;102083.97;4987769;28;20029;-67
2023/07/18 00:26:31;;;;;;;5.68;1.33;;;;;;;23.78;45.74;102082.13;4987536;28;20367;-67
2023/07/18 00:28:57;;;;;;;4.22;1.38;;;;;;;23.78;45.51;102087.44;4985873;28;20470;-68
2023/07/18 00:31:22;;;;;;;4.60;1.70;;;;;;;23.77;45.91;102087.63;4987755;28;20049;-68
2023/07/18 00:33:47;;;;;;;5.05;1.55;;;;;;;23.77;45.97;102096.44;4986997;28;20034;-69
2023/07/18 00:36:14;;;;;;;4.57;1.75;;;;;;;23.75;45.67;102077.09;4987122;28;20034;-68
2023/07/18 00:38:39;;;;;;;5.03;1.50;;;;;;;23.76;45.43;102092.06;4987005;28;20114;-68
2023/07/18 00:41:05;;;;;;;6.38;1.80;;;;;;;23.75;45.92;102078.91;4986870;28;20117;-67
2023/07/18 00:43:33;;;;;;;4.97;1.77;;;;;;;23.75;45.83;102078.91;4987111;28;20049;-67
2023/07/18 00:46:00;;;;;;;4.82;1.70;;;;;;;23.74;45.54;102078.06;4986882;28;20026;-67
2023/07/18 00:48:31;;;;;;;3.70;2.13;;;;;;;23.73;46.05;102079.91;4986616;28;20035;-68
2023/07/18 00:50:58;;;;;;;4.22;1.65;;;;;;;23.74;45.99;102078.06;4987125;28;20042;-67
2023/07/18 00:53:23;;;;;;;6.78;1.80;;;;;;;23.73;45.81;102071.91;4985930;28;20023;-68
2023/07/18 00:55:50;;;;;;;4.55;1.90;;;;;;;23.73;45.79;102074.56;4986069;28;20493;-69
2023/07/18 00:58:17;;;;;;;4.25;1.65;;;;;;;23.72;45.60;102066.72;4986328;28;20120;-67
2023/07/18 01:00:42;;;;;;;3.90;1.60;;;;;;;23.72;45.76;102069.38;4986692;28;20034;-68
2023/07/18 01:03:07;;;;;;;5.03;2.00;;;;;;;23.71;45.75;102065.84;4986087;28;20034;-67
2023/07/18 01:05:33;;;;;;;5.78;2.08;;;;;;;23.71;45.80;102065.84;4985328;28;20062;-67
2023/07/18 01:08:00;;;;;;;5.85;2.00;;;;;;;23.70;45.45;102064.19;4987132;28;20022;-67
2023/07/18 01:10:28;;;;;;;4.68;1.80;;;;;;;23.70;45.45;102072.16;4990537;28;20061;-69
2023/07/18 01:12:56;;;;;;;3.85;1.70;;;;;;;23.70;45.42;102065.97;4990728;28;20364;-68
2023/07/18 01:15:24;;;;;;;4.78;1.80;;;;;;;23.69;45.72;102059.81;4989450;28;20062;-68
2023/07/18 01:17:50;;;;;;;4.72;1.65;;;;;;;23.69;45.79;102066.97;4990988;28;20045;-68
2023/07/18 01:20:21;;;;;;;4.18;1.60;;;;;;;23.68;45.46;102060.78;4989791;28;20034;-68
2023/07/18 01:22:49;;;;;;;3.90;1.77;;;;;;;23.68;45.30;102055.47;4990409;28;20026;-68
2023/07/18 01:25:19;;;;;;;5.63;1.90;;;;;;;23.68;45.52;102063.44;4991150;28;20037;-69
2023/07/18 01:27:45;;;;;;;4.28;1.90;;;;;;;23.67;45.63;102056.47;4990692;28;20030;-67
2023/07/18 01:30:11;;;;;;;3.72;1.48;;;;;;;23.68;45.79;102059.97;4991069;28;20459;-68
2023/07/18 01:32:36;;;;;;;4.35;1.70;;;;;;;23.66;45.26;102053.94;4991217;28;20037;-68
2023/07/18 01:35:08;;;;;;;5.07;2.22;;;;;;;23.64;45.41;102054.06;4991355;28;20042;-68
2023/07/18 01:37:37;;;;;;;3.90;1.67;;;;;;;23.64;45.60;102048.75;4991607;28;20117;-68
2023/07/18 01:40:12;;;;;;;5.00;2.30;;;;;;;23.65;45.78;102047.75;4991377;28;20040;-68
2023/07/18 01:42:39;;;;;;;4.03;1.65;;;;;;;23.64;45.23;102040.75;4990863;28;20042;-67
2023/07/18 01:45:05;;;;;;;5.97;1.70;;;;;;;23.64;45.35;102037.22;4991210;28;20034;-67
2023/07/18 01:47:31;;;;;;;4.07;1.70;;;;;;;23.64;45.49;102040.75;4990626;28;20367;-68
2023/07/18 01:49:58;;;;;;;3.67;2.10;;;;;;;23.63;45.67;102040.91;4990735;28;20096;-68
2023/07/18 01:52:28;;;;;;;3.38;1.48;;;;;;;23.63;45.73;102036.41;4990139;28;20027;-68
2023/07/18 01:54:58;;;;;;;3.58;1.60;;;;;;;23.62;45.30;102036.53;4989926;28;20157;-67
2023/07/18 01:57:25;;;;;;;5.40;1.60;;;;;;;23.62;45.27;102040.03;4989821;28;20045;-67
2023/07/18 01:59:51;;;;;;;4.32;2.10;;;;;;;23.60;45.37;102036.66;4989869;28;20445;-68
2023/07/18 02:02:17;;;;;;;4.03;1.65;;;;;;;23.60;45.67;102034.00;4989695;28;20483;-69
2023/07/18 02:04:43;;;;;;;3.85;1.60;;;;;;;23.61;45.22;102032.22;4989421;28;20426;-68
2023/07/18 02:07:08;;;;;;;5.13;1.95;;;;;;;23.60;45.31;102025.19;4971926;28;20034;-69
2023/07/18 02:09:34;;;;;;;3.33;1.67;;;;;;;23.61;45.11;102027.72;4989765;28;20050;-68
2023/07/18 02:12:00;;;;;;;4.00;1.60;;;;;;;23.60;45.37;102028.69;4990323;28;20065;-68
2023/07/18 02:14:25;;;;;;;5.03;1.75;;;;;;;23.60;45.23;102017.22;4989496;28;20040;-67
2023/07/18 02:16:50;;;;;;;6.00;1.92;;;;;;;23.60;45.44;102025.19;4988012;28;20113;-68
2023/07/18 02:19:16;;;;;;;5.18;1.70;;;;;;;23.60;45.51;102025.19;4989155;28;20081;-68
2023/07/18 02:21:41;;;;;;;3.70;1.70;;;;;;;23.59;45.03;102020.84;4989945;28;20033;-68
2023/07/18 02:24:06;;;;;;;4.38;1.80;;;;;;;23.58;45.54;102025.31;4989676;28;20366;-68
2023/07/18 02:26:32;;;;;;;4.18;1.83;;;;;;;23.56;45.47;102016.63;4989990;28;20030;-68
2023/07/18 02:28:57;;;;;;;3.97;1.63;;;;;;;23.58;45.43;102019.16;4989788;28;20104;-68
2023/07/18 02:31:22;;;;;;;4.13;1.85;;;;;;;23.58;44.98;102024.50;4989418;28;20434;-68
2023/07/18 02:33:48;;;;;;;4.75;1.75;;;;;;;23.58;44.97;102021.84;4989742;28;20022;-68
2023/07/18 02:36:13;;;;;;;4.93;1.60;;;;;;;23.57;45.44;102020.13;4988983;28;20110;-67
2023/07/18 02:38:39;;;;;;;3.03;1.67;;;;;;;23.57;45.05;102022.78;4989006;28;20057;-67
2023/07/18 02:41:04;;;;;;;3.97;1.60;;;;;;;23.57;45.43;102025.47;4989479;28;20033;-68
2023/07/18 02:43:29;;;;;;;4.45;1.85;;;;;;;23.55;45.00;102029.06;4988915;28;20058;-68
2023/07/18 02:45:55;;;;;;;4.50;1.63;;;;;;;23.57;44.89;102022.78;4989317;28;20407;-68
2023/07/18 02:48:20;;;;;;;4.60;2.00;;;;;;;23.52;45.36;102021.34;4988006;28;20026;-68
2023/07/18 02:50:46;;;;;;;4.00;1.60;;;;;;;23.52;45.11;102017.88;4989311;28;20043;-68
2023/07/18 02:53:11;;;;;;;4.13;1.67;;;;;;;23.53;45.07;102020.41;4988338;28;20065;-68
2023/07/18 02:55:36;;;;;;;4.35;1.80;;;;;;;23.52;45.23;102016.03;4988861;28;20092;-68
2023/07/18 02:58:02;;;;;;;3.90;1.65;;;;;;;23.53;44.86;102023.06;4988185;28;20070;-68
2023/07/18 03:00:28;;;;;;;3.88;1.65;;;;;;;23.53;45.09;102024.88;4988625;28;20084;-68
2023/07/18 03:02:54;;;;;;;4.65;1.90;;;;;;;23.51;44.91;102018.81;4988254;28;20092;-67
2023/07/18 03:05:21;;;;;;;3.58;1.73;;;;;;;23.50;45.04;102018.00;4988365;28;20467;-68
2023/07/18 03:07:47;;;;;;;3.67;1.50;;;;;;;23.51;45.17;102019.69;4988480;28;20034;-67
2023/07/18 03:10:13;;;;;;;3.55;1.50;;;;;;;23.51;44.76;102013.50;4988236;28;20053;-67
2023/07/18 03:12:40;;;;;;;3.85;1.60;;;;;;;23.49;45.09;102013.63;4988725;28;20045;-68
2023/07/18 03:15:09;;;;;;;4.72;1.77;;;;;;;23.50;44.75;102014.50;4988461;28;20026;-68
2023/07/18 03:17:35;;;;;;;3.72;1.60;;;;;;;23.49;44.72;102018.13;4987481;28;20114;-69
2023/07/18 03:20:01;;;;;;;3.30;1.70;;;;;;;23.47;44.70;102018.25;4988647;28;21438;-68
2023/07/18 03:22:26;;;;;;;3.15;1.30;;;;;;;23.48;45.04;102013.78;4988382;28;20069;-68
2023/07/18 03:24:54;;;;;;;4.40;1.67;;;;;;;23.48;44.57;102019.97;4988731;28;20364;-67
2023/07/18 03:27:20;;;;;;;4.00;1.50;;;;;;;23.47;44.87;102009.44;4988082;28;20037;-67
2023/07/18 03:29:45;;;;;;;4.00;1.70;;;;;;;23.46;45.02;102013.06;4988730;28;20041;-67
2023/07/18 03:32:10;;;;;;;4.10;1.67;;;;;;;23.48;44.79;102011.13;4987055;28;20420;-67
2023/07/18 03:34:36;;;;;;;3.42;1.45;;;;;;;23.46;44.99;102011.25;4988842;28;20045;-67
2023/07/18 03:37:01;;;;;;;3.53;1.40;;;;;;;23.45;44.66;102004.25;4988031;28;20030;-67
2023/07/18 03:39:26;;;;;;;4.97;1.70;;;;;;;23.46;44.93;102005.91;4990645;28;20042;-68
2023/07/18 03:41:52;;;;;;;4.43;1.80;;;;;;;23.45;44.82;102012.25;4988537;28;20438;-68
2023/07/18 03:44:17;;;;;;;4.97;1.70;;;;;;;23.44;44.34;102001.72;4989120;28;20078;-68
2023/07/18 03:46:42;;;;;;;4.93;1.80;;;;;;;23.44;44.83;102009.72;4981305;28;20030;-68
2023/07/18 03:49:08;;;;;;;3.97;1.35;;;;;;;23.46;44.48;102013.06;4986912;28;20156;-68
2023/07/18 03:51:33;;;;;;;3.50;1.40;;;;;;;23.43;44.54;102008.88;4989009;28;20034;-67
2023/07/18 03:53:59;;;;;;;3.00;1.48;;;;;;;23.45;44.59;102011.38;4987483;28;20364;-68
2023/07/18 03:56:24;;;;;;;4.20;1.48;;;;;;;23.44;44.69;102009.72;4988505;28;20084;-68
2023/07/18 03:58:50;;;;;;;2.80;1.33;;;;;;;23.44;44.70;102007.03;4988323;28;20077;-68
2023/07/18 04:01:15;;;;;;;3.78;1.55;;;;;;;23.42;44.49;102007.19;4988110;28;20035;-67
2023/07/18 04:03:41;;;;;;;4.35;1.60;;;;;;;23.41;44.20;102004.66;4987492;28;20022;-67
2023/07/18 04:06:06;;;;;;;3.92;1.33;;;;;;;23.42;44.25;101998.38;4987952;28;20049;-68
2023/07/18 04:08:31;;;;;;;2.90;1.40;;;;;;;23.41;44.50;101999.31;4987718;28;20026;-67
2023/07/18 04:10:58;;;;;;;3.72;1.50;;;;;;;23.40;44.33;101992.31;4988019;28;20050;-67
2023/07/18 04:13:25;;;;;;;3.28;1.40;;;;;;;23.40;44.14;101992.31;4987305;28;20030;-68
2023/07/18 04:15:51;;;;;;;3.25;1.40;;;;;;;23.41;44.38;101988.69;4987421;28;20210;-68
2023/07/18 04:18:17;;;;;;;3.30;1.42;;;;;;;23.34;44.12;101978.56;4987225;28;20375;-67
2023/07/18 04:20:42;;;;;;;4.03;1.45;;;;;;;23.40;44.48;101985.19;4986816;28;20029;-67
2023/07/18 04:23:07;;;;;;;2.72;1.30;;;;;;;23.40;44.56;101981.66;4983774;28;20027;-67
2023/07/18 04:25:34;;;;;;;3.97;1.50;;;;;;;23.39;44.42;101982.66;4985281;28;20037;-67
2023/07/18 04:28:03;;;;;;;3.72;1.38;;;;;;;23.34;44.46;101967.09;4986060;28;20513;-69
2023/07/18 04:30:28;;;;;;;4.63;1.58;;;;;;;23.39;44.47;101980.84;4986301;28;20034;-67
2023/07/18 04:32:53;;;;;;;2.92;1.27;;;;;;;23.39;44.11;101982.66;4987252;28;20022;-67
2023/07/18 04:35:19;;;;;;;3.70;1.40;;;;;;;23.39;44.57;101985.31;4986159;28;20039;-66
2023/07/18 04:37:44;;;;;;;4.38;1.50;;;;;;;23.37;43.91;101988.13;4987276;28;20113;-66
2023/07/18 04:40:10;;;;;;;2.70;1.25;;;;;;;23.36;43.95;101981.94;4987145;28;20022;-67
2023/07/18 04:42:37;;;;;;;3.05;1.50;;;;;;;23.35;44.54;101976.75;4987528;28;20064;-67
2023/07/18 04:45:05;;;;;;;3.58;1.50;;;;;;;23.35;44.18;101977.59;4986786;28;20530;-67
2023/07/18 04:47:31;;;;;;;3.40;1.40;;;;;;;23.31;44.42;101972.69;4970224;28;20019;-67
2023/07/18 04:49:57;;;;;;;4.00;2.05;;;;;;;23.36;44.02;101991.75;4987498;28;20041;-67
2023/07/18 04:52:22;;;;;;;3.80;1.50;;;;;;;23.34;44.42;101978.56;4985786;28;20438;-67
2023/07/18 04:54:48;;;;;;;3.22;1.23;;;;;;;23.34;44.07;101975.91;4984925;28;20471;-67
2023/07/18 04:57:13;;;;;;;2.85;1.25;;;;;;;23.35;44.07;101976.75;4986895;28;20030;-67
2023/07/18 04:59:38;;;;;;;3.47;1.35;;;;;;;23.34;44.66;101973.25;4986263;28;20046;-68
2023/07/18 05:02:04;;;;;;;3.00;1.33;;;;;;;23.35;44.02;101968.75;4984937;28;20034;-67
2023/07/18 05:04:29;;;;;;;3.15;1.25;;;;;;;23.34;44.43;101973.25;4986471;28;20088;-67
2023/07/18 05:06:54;;;;;;;3.25;1.38;;;;;;;23.34;44.25;101970.59;4986692;28;20034;-68
2023/07/18 05:09:20;;;;;;;3.10;1.40;;;;;;;23.33;44.42;101965.41;4986961;28;20494;-67
2023/07/18 05:11:45;;;;;;;3.00;1.20;;;;;;;23.32;44.47;101975.22;4986982;28;20105;-67
2023/07/18 05:14:11;;;;;;;2.85;1.20;;;;;;;23.31;44.04;101976.19;4985331;28;20479;-68
2023/07/18 05:16:36;;;;;;;2.83;1.20;;;;;;;23.34;44.01;101980.41;4985501;28;20290;-68
2023/07/18 05:19:01;;;;;;;3.42;1.33;;;;;;;23.34;44.07;101983.88;4986763;28;20493;-68
2023/07/18 05:21:27;;;;;;;3.33;1.40;;;;;;;23.34;44.13;101972.41;4986882;28;20041;-68
2023/07/18 05:23:52;;;;;;;3.20;1.20;;;;;;;23.33;44.02;101970.72;4986234;28;20033;-67
2023/07/18 05:26:17;;;;;;;4.32;1.30;;;;;;;23.32;44.37;101969.91;4986706;28;20113;-68
2023/07/18 05:28:43;;;;;;;2.92;1.10;;;;;;;23.31;44.11;101972.69;4986729;28;20367;-68
2023/07/18 05:31:09;;;;;;;3.88;1.23;;;;;;;23.32;43.96;101974.34;4987230;28;20066;-68
2023/07/18 05:33:34;;;;;;;3.08;1.23;;;;;;;23.31;44.33;101975.34;4985472;28;20026;-66
2023/07/18 05:36:00;;;;;;;2.67;1.10;;;;;;;23.32;44.01;101971.69;4986119;28;20041;-68
2023/07/18 05:38:25;;;;;;;3.90;1.35;;;;;;;23.30;44.51;101966.50;4987646;28;20077;-68
2023/07/18 05:40:50;;;;;;;3.60;1.33;;;;;;;23.31;44.47;101972.69;4970437;28;20374;-68
2023/07/18 05:43:18;;;;;;;2.80;1.20;;;;;;;23.32;44.41;101974.34;4986944;28;20030;-67
2023/07/18 05:45:43;;;;;;;3.13;1.30;;;;;;;23.31;44.12;101970.03;4987220;28;20042;-69
2023/07/18 05:48:08;;;;;;;2.80;1.30;;;;;;;23.31;44.28;101976.19;4984241;28;20368;-69
2023/07/18 05:50:34;;;;;;;3.30;1.00;;;;;;;23.31;43.99;101976.19;4985933;28;20080;-68
2023/07/18 05:52:59;;;;;;;2.95;1.20;;;;;;;23.29;44.04;101978.13;4984845;28;20066;-68
2023/07/18 05:55:27;;;;;;;3.15;1.10;;;;;;;23.32;44.00;101979.66;4988563;28;20038;-68
2023/07/18 05:57:52;;;;;;;3.15;1.27;;;;;;;23.32;44.53;101977.00;4989465;28;20521;-68
2023/07/18 06:00:18;;;;;;;3.20;1.40;;;;;;;23.31;44.17;101985.97;4990441;28;20042;-69
2023/07/18 06:02:43;;;;;;;3.40;1.10;;;;;;;23.28;44.45;101981.75;4990194;28;20038;-70
2023/07/18 06:05:10;;;;;;;2.45;1.10;;;;;;;23.31;44.16;101985.97;4990430;28;20035;-68
2023/07/18 06:07:35;;;;;;;3.17;1.02;;;;;;;23.28;44.40;101980.91;4991184;28;20030;-68
2023/07/18 06:10:00;;;;;;;2.50;1.15;;;;;;;23.28;44.17;101983.59;4989824;28;20062;-68
2023/07/18 06:12:26;;;;;;;4.00;1.38;;;;;;;23.31;44.20;101985.97;4990011;28;20034;-68
2023/07/18 06:14:52;;;;;;;4.55;1.25;;;;;;;23.32;43.23;101987.66;4987659;28;20383;-68
2023/07/18 06:17:18;;;;;;;4.38;1.50;;;;;;;23.31;43.34;101988.63;4989277;28;20430;-67
2023/07/18 06:19:46;;;;;;;2.42;1.15;;;;;;;23.31;43.75;101985.97;4989359;28;20030;-68
2023/07/18 06:22:12;;;;;;;4.07;1.27;;;;;;;23.30;44.21;101981.63;4987557;28;20045;-69
2023/07/18 06:24:37;;;;;;;6.03;1.20;;;;;;;23.31;44.63;101980.66;4989447;28;20038;-69
2023/07/18 06:27:03;;;;;;;4.35;1.27;;;;;;;23.30;44.51;101982.47;4986442;28;20031;-67
2023/07/18 06:29:28;;;;;;;4.53;1.40;;;;;;;23.29;44.35;101979.94;4989494;28;20081;-68
2023/07/18 06:31:56;;;;;;;3.40;1.60;;;;;;;23.28;44.43;101980.91;4989348;28;20096;-68
2023/07/18 06:34:21;;;;;;;3.10;1.13;;;;;;;23.27;44.89;101982.72;4988851;28;20073;-68
2023/07/18 06:36:47;;;;;;;3.38;1.17;;;;;;;23.29;45.02;101980.78;4989504;28;20065;-69
2023/07/18 06:39:13;;;;;;;3.83;1.13;;;;;;;23.28;44.59;101976.44;4988405;28;20025;-68
2023/07/18 06:41:39;;;;;;;4.43;1.35;;;;;;;23.28;45.00;101973.78;4988987;28;20033;-68
2023/07/18 06:44:08;;;;;;;6.88;2.00;;;;;;;23.27;45.84;101979.22;4989526;28;20027;-67
2023/07/18 06:46:34;;;;;;;9.45;2.10;;;;;;;23.26;46.27;101978.38;4988842;28;20038;-67
2023/07/18 06:48:59;;;;;;;8.65;2.45;;;;;;;23.25;47.26;101979.34;4988981;28;20041;-67
2023/07/18 06:51:24;;;;;;;5.78;1.88;;;;;;;23.26;47.19;101974.91;4989440;28;20042;-67
2023/07/18 06:53:51;;;;;;;5.72;1.60;;;;;;;23.29;47.56;101977.25;4988998;28;20034;-67
2023/07/18 06:56:17;;;;;;;5.97;1.83;;;;;;;23.30;47.76;101973.66;4987610;28;20022;-67
2023/07/18 06:58:42;;;;;;;5.35;1.70;;;;;;;23.29;47.47;101964.84;4989223;28;20092;-66
2023/07/18 07:01:08;;;;;;;5.70;1.60;;;;;;;23.31;47.43;101970.84;4988312;28;20026;-67
2023/07/18 07:03:33;;;;;;;4.80;1.73;;;;;;;23.32;47.41;101966.38;4989451;28;20160;-67
2023/07/18 07:05:58;;;;;;;6.10;1.70;;;;;;;23.34;47.29;101975.91;4988702;28;20092;-67
2023/07/18 07:08:24;;;;;;;4.18;1.35;;;;;;;23.36;47.45;101975.78;4985176;28;20042;-67
2023/07/18 07:10:52;;;;;;;5.75;1.70;;;;;;;23.38;47.19;101976.47;4986291;28;20039;-67
2023/07/18 07:13:18;;;;;;;6.20;1.70;;;;;;;23.36;47.48;101981.09;4987337;28;20050;-67
2023/07/18 07:15:43;;;;;;;8.45;1.75;;;;;;;23.36;47.37;101987.25;4988559;28;20053;-67
2023/07/18 07:18:08;;;;;;;4.90;1.70;;;;;;;23.36;47.69;101981.94;4988163;28;20467;-68
2023/07/18 07:20:34;;;;;;;5.22;1.70;;;;;;;23.37;47.82;101985.47;4988975;28;20268;-67
2023/07/18 07:23:00;;;;;;;5.78;1.60;;;;;;;23.40;47.31;101976.34;4987244;28;20375;-70
2023/07/18 07:25:27;;;;;;;11.07;2.13;;;;;;;23.42;47.41;101977.91;4988473;28;20157;-69
2023/07/18 07:27:53;;;;;;;7.35;1.55;;;;;;;23.47;47.70;101977.53;4986970;28;20030;-69
2023/07/18 07:30:19;;;;;;;4.88;1.73;;;;;;;23.52;47.70;101969.97;4922549;28;20132;-68
2023/07/18 07:32:54;;;;;;;3.70;1.70;;;;;;;23.51;47.19;101965.63;144993;28;10022850;-70
2023/07/18 07:35:20;;;;;;;4.65;1.35;;;;;;;23.54;47.35;101976.84;4624096;28;10001593;-69
2023/07/18 07:37:47;;;;;;;6.78;1.30;;;;;;;23.58;47.22;101979.25;4966017;28;20054;-67
2023/07/18 07:40:13;;;;;;;3.25;1.20;;;;;;;23.58;47.25;101969.44;4967978;28;20035;-67
2023/07/18 07:42:40;;;;;;;4.45;1.40;;;;;;;23.59;46.68;101965.81;4964643;28;20038;-70
2023/07/18 07:45:07;;;;;;;3.63;1.17;;;;;;;23.60;47.17;101966.66;4959862;28;20619;-69
2023/07/18 07:47:33;;;;;;;4.30;1.50;;;;;;;23.61;46.81;101973.66;4960338;28;20392;-69
2023/07/18 07:49:58;;;;;;;3.85;1.40;;;;;;;23.62;46.66;101967.34;4964791;28;20097;-70
2023/07/18 07:52:37;;;;;;;3.65;1.33;;;;;;;23.63;46.56;101969.03;3103241;28;10002433;-69
2023/07/18 07:55:03;;;;;;;5.85;1.30;;;;;;;23.66;46.92;101960.78;1711283;28;10002140;-69
2023/07/18 07:57:29;;;;;;;7.07;1.42;;;;;;;23.66;46.31;101974.94;4967480;28;20133;-68
2023/07/18 07:59:54;;;;;;;4.82;1.30;;;;;;;23.67;46.80;101967.78;4965056;28;20082;-68
2023/07/18 08:02:20;;;;;;;4.35;1.08;;;;;;;23.67;46.38;101971.31;4965932;28;20022;-67
2023/07/18 08:04:47;;;;;;;3.08;1.10;;;;;;;23.66;46.50;101963.47;4924670;28;20475;-68
2023/07/18 08:07:24;;;;;;;3.15;1.10;;;;;;;23.63;46.83;101961.06;635328;28;10023841;-67
2023/07/18 08:09:50;;;;;;;3.53;1.10;;;;;;;23.64;46.78;101962.72;2396160;28;10001211;-69
2023/07/18 08:12:15;;;;;;;3.55;1.05;;;;;;;23.65;46.38;101956.44;4967233;28;20034;-67
2023/07/18 08:14:44;;;;;;;3.82;1.00;;;;;;;23.67;46.12;101958.00;4096716;28;10001569;-68
2023/07/18 08:17:10;;;;;;;3.53;1.00;;;;;;;23.69;46.01;101958.69;4971025;28;20582;-68
2023/07/18 08:19:35;;;;;;;5.45;1.10;;;;;;;23.69;46.30;101963.19;4975664;28;20089;-69
2023/07/18 08:22:04;;;;;;;4.10;1.20;;;;;;;23.68;46.09;101958.84;4986473;28;20022;-66
2023/07/18 08:24:30;;;;;;;3.88;1.05;;;;;;;23.66;46.30;101956.31;4984016;28;20050;-67
2023/07/18 08:26:56;;;;;;;2.53;1.02;;;;;;;23.69;46.44;101955.22;4987240;28;20034;-67
2023/07/18 08:29:32;;;;;;;6.63;1.10;;;;;;;23.70;46.14;101954.22;4985673;28;20127;-68
2023/07/18 08:32:00;;;;;;;2.72;0.90;;;;;;;23.69;45.96;101947.22;4983803;28;20124;-68
2023/07/18 08:34:26;;;;;;;5.55;1.20;;;;;;;23.71;45.95;101943.44;4985124;28;20050;-68
2023/07/18 08:36:51;;;;;;;2.58;1.00;;;;;;;23.69;45.75;101941.91;4986206;28;20056;-68
2023/07/18 08:39:17;;;;;;;3.55;0.73;;;;;;;23.70;45.92;101939.09;4984394;28;20033;-67
2023/07/18 08:41:46;;;;;;;3.88;0.90;;;;;;;23.72;45.96;101936.31;4983044;28;20058;-67
2023/07/18 08:44:13;;;;;;;4.00;1.05;;;;;;;23.73;46.25;101940.63;4986061;28;20399;-67
2023/07/18 08:46:42;;;;;;;2.25;0.80;;;;;;;23.73;45.77;101940.63;4985893;28;20120;-68
2023/07/18 08:49:10;;;;;;;2.15;0.77;;;;;;;23.69;46.03;101936.59;4986315;28;20034;-69
2023/07/18 08:51:36;;;;;;;3.08;0.85;;;;;;;23.67;45.72;101926.06;4986363;28;20038;-66
2023/07/18 08:54:01;;;;;;;3.08;1.30;;;;;;;23.68;45.62;101925.06;4985256;28;20387;-66
2023/07/18 08:56:27;;;;;;;3.25;0.90;;;;;;;23.68;45.97;101929.56;4983672;28;20459;-67
2023/07/18 08:58:54;;;;;;;3.05;0.80;;;;;;;23.69;45.71;101926.75;4984967;28;20038;-69
2023/07/18 09:01:20;;;;;;;4.82;1.00;;;;;;;23.71;45.74;101923.97;4985233;28;20552;-67
2023/07/18 09:03:45;;;;;;;2.85;1.10;;;;;;;23.72;46.04;101915.03;4985052;28;20029;-68
2023/07/18 09:06:18;;;;;;;4.60;1.10;;;;;;;23.68;45.73;101914.44;4984302;28;20066;-68
2023/07/18 09:08:44;;;;;;;3.20;0.80;;;;;;;23.69;45.52;101915.28;4985944;28;20041;-67
2023/07/18 09:11:12;;;;;;;5.10;1.00;;;;;;;23.66;45.54;101924.38;4986442;28;20097;-67
2023/07/18 09:13:39;;;;;;;3.33;0.90;;;;;;;23.63;45.61;101908.69;4986632;28;20045;-67
2023/07/18 09:16:17;;;;;;;2.75;0.70;;;;;;;23.63;45.66;101907.84;4986698;28;20113;-68
2023/07/18 09:18:52;;;;;;;2.08;0.60;;;;;;;23.64;45.49;101912.16;4986046;28;20117;-66
2023/07/18 09:21:18;;;;;;;2.50;0.70;;;;;;;23.66;45.47;101904.91;4986446;28;20473;-66
2023/07/18 09:23:45;;;;;;;2.50;0.90;;;;;;;23.64;45.78;101901.53;4986146;28;20026;-66
2023/07/18 09:26:13;;;;;;;3.88;0.70;;;;;;;23.63;45.41;101900.69;4985495;28;20038;-68
2023/07/18 09:28:39;;;;;;;2.28;0.90;;;;;;;23.61;45.32;101891.19;4984678;28;20041;-66
2023/07/18 09:31:21;;;;;;;1.95;0.73;;;;;;;23.59;45.56;101891.31;4988156;28;20026;-67
2023/07/18 09:33:48;;;;;;;2.90;0.80;;;;;;;23.63;45.67;101891.88;4953580;28;20044;-66
2023/07/18 09:36:18;;;;;;;2.28;0.60;;;;;;;23.61;45.30;101888.53;4989456;28;20386;-68
2023/07/18 09:38:45;;;;;;;5.10;0.80;;;;;;;23.58;45.97;101886.97;4989060;28;20026;-67
2023/07/18 09:41:10;;;;;;;1.60;0.73;;;;;;;23.58;45.82;101884.31;4990068;28;20041;-67
2023/07/18 09:43:37;;;;;;;2.75;0.70;;;;;;;23.56;45.93;101883.59;4990084;28;20034;-67
2023/07/18 09:46:05;;;;;;;3.85;1.70;;;;;;;23.56;45.76;101888.94;4990457;28;20147;-67
2023/07/18 09:48:33;;;;;;;2.22;0.60;;;;;;;23.54;46.00;101888.19;4989380;28;20467;-67
2023/07/18 09:51:00;;;;;;;1.85;0.60;;;;;;;23.54;46.00;101891.72;4972689;28;20023;-67
2023/07/18 09:53:29;;;;;;;2.15;0.75;;;;;;;23.51;46.13;101891.13;4989280;28;20034;-67
2023/07/18 09:55:57;;;;;;;1.85;0.70;;;;;;;23.52;45.55;101885.66;4987553;28;20049;-67
2023/07/18 09:58:25;;;;;;;4.53;0.77;;;;;;;23.52;46.06;101883.00;4989238;28;20053;-65
2023/07/18 10:00:51;;;;;;;2.55;0.80;;;;;;;23.53;45.79;101889.19;4993059;28;20030;-65
2023/07/18 10:03:17;;;;;;;2.10;0.80;;;;;;;23.54;45.70;101874.91;4975001;28;20069;-65
2023/07/18 10:05:43;;;;;;;2.15;0.75;;;;;;;23.53;45.79;101868.75;4990609;28;20084;-65
2023/07/18 10:08:09;;;;;;;2.20;0.77;;;;;;;23.54;45.61;101874.91;4991042;28;20042;-65
2023/07/18 10:10:34;;;;;;;3.22;0.68;;;;;;;23.51;46.25;101864.53;4991685;28;20378;-65
2023/07/18 10:13:01;;;;;;;2.70;0.70;;;;;;;23.51;45.88;101862.72;4982735;28;20049;-65
2023/07/18 10:15:28;;;;;;;2.45;0.80;;;;;;;23.51;46.37;101856.53;4990015;28;20537;-66
2023/07/18 10:17:53;;;;;;;2.05;0.70;;;;;;;23.50;46.01;101857.53;4989635;28;20390;-65
2023/07/18 10:20:24;;;;;;;1.90;0.70;;;;;;;23.49;46.35;101846.03;4989499;28;20034;-64
2023/07/18 10:22:55;;;;;;;2.67;0.70;;;;;;;23.51;45.99;101840.56;4954881;28;20038;-64
2023/07/18 10:25:21;;;;;;;2.85;0.70;;;;;;;23.49;45.88;101835.41;4987574;28;20018;-66
2023/07/18 10:27:49;;;;;;;2.28;0.65;;;;;;;23.51;45.92;101845.91;4988683;28;20018;-66
2023/07/18 10:30:17;;;;;;;2.85;0.70;;;;;;;23.50;46.22;101834.44;4988477;28;20490;-65
2023/07/18 10:32:50;;;;;;;3.30;0.80;;;;;;;23.49;46.17;101829.25;4987952;28;20034;-65
2023/07/18 10:35:16;;;;;;;2.58;0.77;;;;;;;23.50;46.13;101833.59;4988192;28;20038;-64
2023/07/18 10:37:43;;;;;;;3.25;0.85;;;;;;;23.47;46.17;101826.72;4980078;28;20447;-65
2023/07/18 10:40:10;;;;;;;3.60;0.90;;;;;;;23.49;45.92;101827.41;4957347;28;20046;-65
2023/07/18 10:42:36;;;;;;;2.42;0.88;;;;;;;23.48;45.88;101824.88;4959080;28;20030;-64
2023/07/18 10:45:04;;;;;;;2.97;0.80;;;;;;;23.48;46.28;101836.38;4989527;28;20427;-66
2023/07/18 10:47:30;;;;;;;4.07;0.70;;;;;;;23.50;46.15;101836.25;3172908;28;10000978;-65
2023/07/18 10:49:56;;;;;;;2.78;0.60;;;;;;;23.48;45.91;101827.56;4981009;28;20418;-65
2023/07/18 10:52:22;;;;;;;2.20;0.60;;;;;;;23.47;46.20;101828.53;4988726;28;20037;-67
2023/07/18 10:54:50;;;;;;;3.83;0.90;;;;;;;23.51;45.66;101827.28;4988441;28;20383;-65
2023/07/18 10:57:15;;;;;;;2.83;0.95;;;;;;;23.49;46.09;101821.25;4988507;28;20038;-66
2023/07/18 10:59:44;;;;;;;2.60;0.80;;;;;;;23.49;46.01;101822.09;4987529;28;20121;-65
2023/07/18 11:02:11;;;;;;;1.95;0.70;;;;;;;23.48;46.01;101814.25;4987966;28;20042;-65
2023/07/18 11:04:36;;;;;;;2.10;0.70;;;;;;;23.47;46.41;101812.59;4987794;28;20034;-66
2023/07/18 11:07:01;;;;;;;2.53;0.60;;;;;;;23.49;45.93;101824.75;4987713;28;20038;-65
2023/07/18 11:09:27;;;;;;;2.47;0.60;;;;;;;23.48;45.94;101822.22;4987384;28;20050;-64
2023/07/18 11:11:54;;;;;;;3.08;0.50;;;;;;;23.49;46.15;101818.59;4987973;28;20034;-65
2023/07/18 11:14:19;;;;;;;2.60;0.70;;;;;;;23.48;45.87;101815.09;4987367;28;20048;-65
2023/07/18 11:16:45;;;;;;;1.10;0.60;;;;;;;23.50;45.86;101809.66;4987121;28;20034;-66
2023/07/18 11:19:10;;;;;;;2.22;0.70;;;;;;;23.49;45.77;101807.97;4970432;28;20031;-65
2023/07/18 11:21:37;;;;;;;2.83;0.75;;;;;;;23.50;46.01;101807.81;4988655;28;20043;-66